createdAt,value
2019-01-11T00:02:26.745Z,99.90
2019-01-11T00:07:29.663Z,99.90
2019-01-11T00:12:33.919Z,99.90
2019-01-11T00:17:36.797Z,99.90
2019-01-11T00:22:42.904Z,99.90
2019-01-11T00:27:45.754Z,99.90
2019-01-11T00:32:48.656Z,99.90
2019-01-11T00:37:51.524Z,99.90
2019-01-11T00:42:54.360Z,99.90
2019-01-11T00:47:57.263Z,99.90
2019-01-11T00:53:00.195Z,99.90
2019-01-11T00:58:03.194Z,99.90
2019-01-11T01:03:06.138Z,99.90
2019-01-11T01:08:09.013Z,99.90
2019-01-11T01:13:11.947Z,99.90
2019-01-11T01:18:14.819Z,99.90
2019-01-11T01:23:17.750Z,99.90
2019-01-11T01:28:20.646Z,99.90
2019-01-11T01:33:23.500Z,99.90
2019-01-11T01:38:26.306Z,99.90
2019-01-11T01:43:30.210Z,99.90
2019-01-11T01:48:33.077Z,99.90
2019-01-11T01:53:36.090Z,99.90
2019-01-11T01:58:41.684Z,99.90
2019-01-11T02:03:44.541Z,99.90
2019-01-11T02:08:47.365Z,99.90
2019-01-11T02:13:50.282Z,99.90
2019-01-11T02:18:53.145Z,99.90
2019-01-11T02:23:56.003Z,99.90
2019-01-11T02:28:58.866Z,99.90
2019-01-11T02:34:01.724Z,99.90
2019-01-11T02:39:19.934Z,99.90
2019-01-11T02:44:23.544Z,99.90
2019-01-11T02:49:26.413Z,99.90
2019-01-11T02:54:29.299Z,99.90
2019-01-11T02:59:32.148Z,99.90
2019-01-11T03:04:35.008Z,99.90
2019-01-11T03:09:37.875Z,99.90
2019-01-11T03:14:41.498Z,99.90
2019-01-11T03:19:47.925Z,99.90
2019-01-11T03:24:52.263Z,99.90
2019-01-11T03:29:55.089Z,99.90
2019-01-11T03:35:17.703Z,99.90
2019-01-11T03:40:24.483Z,99.90
2019-01-11T03:45:27.461Z,99.90
2019-01-11T03:50:30.343Z,99.90
2019-01-11T03:55:33.222Z,99.90
2019-01-11T04:00:36.154Z,99.90
2019-01-11T04:05:45.127Z,99.90
2019-01-11T04:10:47.976Z,99.90
2019-01-11T04:15:51.391Z,99.90
2019-01-11T04:20:54.466Z,99.90
2019-01-11T04:25:57.349Z,99.90
2019-01-11T04:31:03.374Z,99.90
2019-01-11T04:36:08.975Z,99.90
2019-01-11T04:41:11.875Z,99.90
2019-01-11T04:46:14.725Z,99.90
2019-01-11T04:51:17.587Z,99.90
2019-01-11T04:56:23.662Z,99.90
2019-01-11T05:01:29.576Z,99.90
2019-01-11T05:06:32.471Z,99.90
2019-01-11T05:11:35.310Z,99.90
2019-01-11T05:16:48.664Z,99.90
2019-01-11T05:21:42.840Z,99.90
2019-01-11T05:26:45.713Z,99.90
2019-01-11T05:31:48.844Z,99.90
2019-01-11T05:36:51.861Z,99.90
2019-01-11T05:41:54.744Z,99.90
2019-01-11T05:46:57.580Z,99.90
2019-01-11T05:52:00.457Z,99.90
2019-01-11T05:57:03.443Z,99.90
2019-01-11T06:02:06.293Z,99.90
2019-01-11T06:07:37.642Z,99.90
2019-01-11T06:12:40.534Z,99.90
2019-01-11T06:17:45.140Z,99.90
2019-01-11T06:22:48.007Z,99.90
2019-01-11T06:27:50.911Z,99.90
2019-01-11T06:32:53.768Z,99.90
2019-01-11T06:37:56.938Z,99.90
2019-01-11T06:43:03.509Z,99.90
2019-01-11T06:48:18.756Z,99.90
2019-01-11T06:53:21.589Z,99.90
2019-01-11T06:58:33.781Z,99.90
2019-01-11T07:03:41.462Z,99.90
2019-01-11T07:08:44.346Z,99.90
2019-01-11T07:13:48.403Z,99.90
2019-01-11T07:18:51.272Z,99.90
2019-01-11T07:23:54.707Z,99.90
2019-01-11T07:28:57.603Z,99.90
2019-01-11T07:34:00.537Z,99.90
2019-01-11T07:39:12.666Z,99.90
2019-01-11T07:44:17.716Z,99.90
2019-01-11T07:49:23.298Z,99.90
2019-01-11T07:54:31.362Z,99.90
2019-01-11T07:59:34.206Z,99.90
2019-01-11T08:04:37.062Z,99.90
2019-01-11T08:09:43.079Z,99.90
2019-01-11T08:14:46.028Z,99.90
2019-01-11T08:19:57.787Z,99.90
2019-01-11T08:25:02.859Z,99.90
2019-01-11T08:30:11.405Z,99.90
2019-01-11T08:35:15.027Z,99.90
2019-01-11T08:40:17.859Z,99.90
2019-01-11T08:45:20.788Z,99.90
2019-01-11T08:50:34.146Z,99.90
2019-01-11T08:55:29.288Z,99.90
2019-01-11T09:00:32.216Z,99.90
2019-01-11T09:05:35.170Z,99.90
2019-01-11T09:10:42.259Z,99.90
2019-01-11T09:15:45.470Z,99.90
2019-01-11T09:20:48.305Z,99.90
2019-01-11T09:25:51.260Z,99.90
2019-01-11T09:30:54.168Z,99.90
2019-01-11T09:35:59.800Z,99.90
2019-01-11T09:41:06.254Z,99.90
2019-01-11T09:46:09.390Z,99.90
2019-01-11T09:51:15.645Z,99.90
2019-01-11T09:56:17.009Z,99.90
2019-01-11T10:01:19.884Z,99.90
2019-01-11T10:06:22.808Z,99.90
2019-01-11T10:11:25.753Z,99.90
2019-01-11T10:16:29.364Z,99.90
2019-01-11T10:21:32.467Z,99.90
2019-01-11T10:26:35.340Z,99.90
2019-01-11T10:31:38.206Z,99.90
2019-01-11T10:36:41.068Z,99.90
2019-01-11T10:41:43.968Z,99.90
2019-01-11T10:46:49.191Z,99.90
2019-01-11T10:51:52.377Z,99.90
2019-01-11T10:56:58.025Z,99.90
2019-01-11T11:02:05.181Z,99.90
2019-01-11T11:07:07.569Z,99.90
2019-01-11T11:12:13.177Z,99.90
2019-01-11T11:17:16.099Z,99.90
2019-01-11T11:22:22.024Z,99.90
2019-01-11T11:27:24.892Z,99.90
2019-01-11T11:32:53.586Z,99.90
2019-01-11T11:37:56.610Z,99.90
2019-01-11T11:42:59.500Z,99.90
2019-01-11T11:48:03.788Z,99.90
2019-01-11T11:53:06.811Z,99.90
2019-01-11T11:58:12.729Z,99.90
2019-01-11T12:03:18.708Z,99.90
2019-01-11T12:08:21.658Z,99.90
2019-01-11T12:13:24.498Z,99.90
2019-01-11T12:18:27.416Z,99.90
2019-01-11T12:23:33.701Z,99.90
2019-01-11T12:28:36.724Z,99.90
2019-01-11T12:33:39.583Z,99.90
2019-01-11T12:38:42.439Z,99.90
2019-01-11T12:43:49.847Z,99.90
2019-01-11T12:48:52.924Z,99.90
2019-01-11T12:53:55.817Z,99.90
2019-01-11T12:58:59.240Z,99.90
2019-01-11T13:04:02.373Z,99.90
2019-01-11T13:09:07.528Z,99.90
2019-01-11T13:14:10.361Z,99.90
2019-01-11T13:19:13.654Z,99.90
2019-01-11T13:24:16.623Z,99.90
2019-01-11T13:29:19.469Z,99.90
2019-01-11T13:34:23.997Z,99.90
2019-01-11T13:39:29.542Z,99.90
2019-01-11T13:44:32.415Z,99.90
2019-01-11T13:49:35.345Z,94.80
2019-01-11T13:54:38.250Z,90.30
2019-01-11T13:59:41.599Z,81.90
2019-01-11T14:04:44.911Z,80.00
2019-01-11T14:09:47.703Z,65.30
2019-01-11T14:14:50.607Z,65.50
2019-01-11T14:19:53.648Z,59.10
2019-01-11T14:24:59.500Z,56.30
2019-01-11T14:30:02.519Z,56.20
2019-01-11T14:35:06.425Z,49.80
2019-01-11T14:40:11.325Z,44.50
2019-01-11T14:45:15.343Z,40.60
2019-01-11T14:50:18.936Z,41.50
2019-01-11T14:55:21.883Z,38.80
2019-01-11T15:00:28.492Z,33.10
2019-01-11T15:05:34.777Z,35.50
2019-01-11T15:10:37.989Z,34.60
2019-01-11T15:15:42.145Z,33.30
2019-01-11T15:20:45.034Z,27.50
2019-01-11T15:25:50.925Z,26.00
2019-01-11T15:30:54.166Z,24.50
2019-01-11T15:35:57.400Z,24.10
2019-01-11T15:41:00.722Z,24.40
2019-01-11T15:46:05.867Z,21.60
2019-01-11T15:51:09.277Z,21.00
2019-01-11T15:56:24.419Z,17.50
2019-01-11T16:01:30.673Z,17.90
2019-01-11T16:06:35.304Z,12.10
2019-01-11T16:11:49.764Z,9.70
2019-01-11T16:17:02.354Z,12.30
2019-01-11T16:22:27.643Z,12.80
2019-01-11T16:27:31.228Z,13.40
2019-01-11T16:32:34.511Z,12.30
2019-01-11T16:37:40.698Z,10.80
2019-01-11T16:42:46.857Z,10.50
2019-01-11T16:47:50.478Z,9.30
2019-01-11T16:52:53.918Z,6.30
2019-01-11T16:57:57.219Z,6.00
2019-01-11T17:03:00.388Z,5.30
2019-01-11T17:08:03.765Z,4.10
2019-01-11T17:13:07.133Z,3.20
2019-01-11T17:18:10.749Z,1.00
2019-01-11T17:23:14.296Z,1.00
2019-01-11T17:28:18.087Z,1.00
2019-01-11T17:33:21.636Z,1.00
2019-01-11T17:38:24.772Z,1.00
2019-01-11T17:43:29.383Z,1.00
2019-01-11T17:48:32.866Z,1.00
2019-01-11T17:53:36.123Z,1.00
2019-01-11T17:58:39.611Z,1.00
2019-01-11T18:03:43.067Z,1.00
2019-01-11T18:08:49.657Z,1.00
2019-01-11T18:13:56.171Z,1.00
2019-01-11T18:18:59.444Z,1.00
2019-01-11T18:24:02.931Z,1.00
2019-01-11T18:29:06.226Z,1.00
2019-01-11T18:34:11.933Z,1.00
2019-01-11T18:39:19.640Z,1.00
2019-01-11T18:44:23.175Z,1.00
2019-01-11T18:49:26.411Z,1.00
2019-01-11T18:54:35.915Z,1.00
2019-01-11T18:59:39.353Z,1.00
2019-01-11T19:05:03.891Z,1.00
2019-01-11T19:10:10.609Z,1.00
2019-01-11T19:15:16.451Z,1.00
2019-01-11T19:20:24.891Z,1.00
2019-01-11T19:25:28.760Z,1.00
2019-01-11T19:30:32.193Z,1.00
2019-01-11T19:35:39.676Z,1.00
2019-01-11T19:40:47.182Z,1.00
2019-01-11T19:45:54.605Z,1.00
2019-01-11T19:50:59.803Z,1.00
2019-01-11T19:56:03.737Z,1.00
2019-01-11T20:01:11.801Z,1.00
2019-01-11T20:06:17.852Z,1.00
2019-01-11T20:11:21.366Z,1.00
2019-01-11T20:16:25.259Z,1.00
2019-01-11T20:21:36.838Z,1.00
2019-01-11T20:26:42.633Z,1.00
2019-01-11T20:31:46.247Z,1.00
2019-01-11T20:37:01.004Z,1.00
2019-01-11T20:42:04.544Z,1.00
2019-01-11T20:47:09.904Z,1.00
2019-01-11T20:52:16.221Z,1.00
2019-01-11T20:57:19.640Z,1.00
2019-01-11T21:02:23.684Z,1.00
2019-01-11T21:07:27.100Z,1.00
2019-01-11T21:12:30.384Z,1.00
2019-01-11T21:17:33.956Z,1.00
2019-01-11T21:22:37.417Z,1.00
2019-01-11T21:27:40.984Z,1.00
2019-01-11T21:32:44.645Z,1.00
2019-01-11T21:37:49.658Z,1.00
2019-01-11T21:42:58.946Z,1.00
2019-01-11T21:48:02.518Z,1.00
2019-01-11T21:53:12.079Z,1.00
2019-01-11T21:58:15.618Z,1.00
2019-01-11T22:03:20.695Z,1.00
2019-01-11T22:08:24.469Z,1.00
2019-01-11T22:13:30.747Z,1.00
2019-01-11T22:18:34.105Z,1.00
2019-01-11T22:23:37.676Z,1.00
2019-01-11T22:28:43.185Z,1.00
2019-01-11T22:34:04.404Z,1.00
2019-01-11T22:39:08.078Z,1.00
2019-01-11T22:44:12.953Z,1.00
2019-01-11T22:49:17.420Z,1.00
2019-01-11T22:54:20.607Z,1.00
2019-01-11T22:59:26.954Z,1.00
2019-01-11T23:04:30.575Z,1.00
2019-01-11T23:09:48.220Z,1.00
2019-01-11T23:14:54.734Z,1.00
2019-01-11T23:19:58.356Z,1.00
2019-01-11T23:25:01.807Z,1.00
2019-01-11T23:30:08.526Z,1.00
2019-01-11T23:35:14.909Z,1.00
2019-01-11T23:40:18.223Z,1.00
2019-01-11T23:45:21.662Z,1.00
2019-01-11T23:50:27.953Z,1.00
2019-01-11T23:55:31.263Z,1.00
